Terminal Aerodrome Forecast
Issued by NWS

Current Version | Previous Version | Text Only | Print | Product List | Glossary Off
Versions: 1 2 3 4 5 6 7 8 9 10 11 12 13 14 15

138
FTUS44 KSJT 280520
TAFJCT
TAF
KJCT 280520Z 2806/2906 10007KT P6SM SCT025
     FM280700 13007KT P6SM OVC015
     FM280900 15008KT P6SM OVC012
     FM281600 16013G20KT P6SM OVC015
     FM281800 17013G20KT P6SM OVC030
     FM282100 17013G21KT P6SM BKN040
     FM290300 15010KT P6SM BKN025=

USA.gov is the U.S. government's official web portal to all federal, state and local government web resources and services.